Rogers Park, Illinois
Current Conditions -  °F | °C
As of 1:51 AM on Sunday 23 Nov 2014 (Local Time) from KORD Reporting Station
Overcast Overcast  
Wind Chill: 50°   Ceiling: 1100
Heat Index: 50°   Visibility: 7mi
Dew Point: 46°   Wind: 16mph
Humidity: 86%   Direction: 190°S
Pressure: 29.81"   Gusts: NA
Location:  41.991°N, 87.6654°W
Report Text: KORD 230751Z 19014KT 7SM OVC011 10/08 A2981 RMK AO2 SLP097 T01000078
Loading
Personal Weather Stations






























Interactive Weather Map New forecast layout! Learn more

10-Day Weather Forecast

Advertisements
Track Severe Weather on mobile